• Join FlightAware (Why Join?)
  • Login
  • US Flag 
02:59PM EDT


 

Airport Tracker/Info


-or-


 

Live Flight TrackerFlight Track Log ✈ CPT8691 ✈ 23-Apr-2013 ✈ PHNL - PHJH / JHM

Flight Track Log - Related Links

Times and Time Zones

All times are in EDT time to prevent confusion due to time zone crossing. See the CPT8691 flight status page for this flight to view local times or setup timezone preferences in your user account.

Time Position Orientation Groundspeed Altitude Reporting Facility
EDT Latitude Longitude Course Direction KTS MPH feet Rate Location/Type
01:18PM 21.3000 -157.9333 180° South 90 104 700  Level Honolulu Center
01:19PM 21.2833 -157.9333 180° South 90 104 1,400 600 Climbing Honolulu Center
01:20PM 21.2500 -157.9333 180° South 110 127 2,000 540 Climbing Honolulu Center
01:21PM 21.2167 -157.9333 180° South 120 138 2,600 600 Climbing Honolulu Center
01:22PM 21.2000 -157.9167 137° Southeast 120 138 3,300 600 Climbing Honolulu Center
01:23PM 21.1667 -157.8833 137° Southeast 120 138 3,900 540 Climbing Honolulu Center
01:24PM 21.1500 -157.8667 137° Southeast 120 138 4,400 540 Climbing Honolulu Center
01:25PM 21.1333 -157.8333 118° Southeast 140 161 5,000 600 Climbing Honolulu Center
01:26PM 21.1333 -157.8000 90° East 140 161 5,600 540 Climbing Honolulu Center
01:27PM 21.1333 -157.7667 90° East 150 173 6,100 540 Climbing Honolulu Center
01:28PM 21.1333 -157.7167 90° East 140 161 6,700 420 Climbing Honolulu Center
01:29PM 21.1333 -157.6833 90° East 150 173 7,000 120 Climbing Honolulu Center
01:30PM 21.1333 -157.6333 90° East 160 184 7,000  Level Honolulu Center
01:31PM 21.1333 -157.5833 90° East 160 184 7,000  Level Honolulu Center
01:32PM 21.1333 -157.5333 90° East 160 184 7,000  Level Honolulu Center
01:33PM 21.1333 -157.4833 90° East 160 184 7,000  Level Honolulu Center
01:34PM 21.1333 -157.4333 90° East 160 184 7,000  Level Honolulu Center
01:35PM 21.1333 -157.3833 90° East 160 184 7,000  Level Honolulu Center
01:36PM 21.1333 -157.3333 90° East 160 184 7,000  Level Honolulu Center
01:37PM 21.1333 -157.2833 90° East 160 184 7,000  Level Honolulu Center
01:38PM 21.1333 -157.2500 90° East 160 184 7,000  Level Honolulu Center
01:39PM 21.1333 -157.2000 90° East 160 184 7,000 -120 Level Honolulu Center
01:40PM 21.1333 -157.1500 90° East 170 196 6,800 -300 Descending Honolulu Center
01:41PM 21.1000 -157.1000 126° Southeast 170 196 6,500 -180 Descending Honolulu Center
01:42PM 21.0833 -157.0500 110° East 160 184 6,500 -60 Level Honolulu Center
01:43PM 21.0667 -157.0167 118° Southeast 160 184 6,400 -480 Descending Honolulu Center
01:44PM 21.0500 -156.9667 110° East 180 207 5,600 -720 Descending Honolulu Center
01:45PM 21.0333 -156.9167 110° East 170 196 5,000 -480 Descending Honolulu Center
01:46PM 21.0167 -156.8667 110° East 160 184 4,700 -180 Descending Honolulu Center
01:47PM 21.0000 -156.8333 118° Southeast 150 173 4,700 -420 Level Honolulu Center
01:48PM 21.0000 -156.7833 90° East 160 184 3,900 -900 Descending Honolulu Center
01:49PM 20.9833 -156.7333 110° East 160 184 3,000 -900 Descending Honolulu Center